Weather at Geneva Cointrin International Airport

Public forecast

Using degrees Celsius for public forecast. Weather courtesy of forecast.io.

Current aviation weather report (METAR) for Geneva Cointrin International Airport

Retrieved 2020/10/30 04:20 UTC (14 minutes ago):

LSGG 300420Z 26001KT 9999 BCFG NSC 05/05 Q1027 NOSIG

Aviation forecast (TAF) for Geneva Cointrin International Airport

Retrieved 2020-10-30 03:46 UTC (48 minutes ago):

TAF LSGG 300225Z 3003/3109 VRB03KT 8000 FEW050 SCT250 TX16/3015Z TN06/3005Z TN04/3105Z PROB40 TEMPO 3003/3008 4000 MIFG PROB30 TEMPO 3005/3007 0900 FG VV003 BECMG 3007/3009 CAVOK BECMG 3022/3101 4000 BCFG BECMG 3101/3103 0900 FG VV003